Terminal Aerodrome Forecast
Issued by NWS

Home | Current Version | Previous Version | Text Only | Print | Product List | Glossary On
Versions: 1 2 3 4 5 6 7 8 9 10 11 12 13
000
FTUS42 TJSJ 281100 RRA
TAFJSJ
TAF
TJSJ 281145Z 2812/2912 09005KT P6SM FEW025 SCT040
     FM281330 07015G20KT P6SM FEW030 SCT050
     FM282330 11005KT P6SM FEW025=

USA.gov is the U.S. government's official web portal to all federal, state and local government web resources and services.